Time;durP1;ratioP1;P1;durP2;ratioP2;P2;SDS_P1;SDS_P2;PMS_P1;PMS_P2;Temp;Humidity;BMP_temperature;BMP_pressure;BME280_temperature;BME280_humidity;BME280_pressure;Samples;Min_cycle;Max_cycle;Signal;HPM_P1;HPM_P2
2021/12/25 09:53:19;;;;;;;4.50;0.98;;;;;;;-144.19;100.00;78585.53;5052120;28;20140;-88
2021/12/25 09:55:47;;;;;;;2.22;0.65;;;;;;;-144.19;100.00;78591.44;5046703;28;20057;-92
2021/12/25 09:58:13;;;;;;;6.25;1.88;;;;;;;-144.19;100.00;78579.63;5054416;28;20044;-90
2021/12/25 10:00:43;;;;;;;0.95;0.50;;;;;;;-144.19;100.00;78585.53;5072534;28;20059;-90
2021/12/25 10:03:21;;;;;;;3.40;1.70;;;;;;;-144.19;100.00;78579.63;5054490;28;20096;-87
2021/12/25 10:05:50;;;;;;;3.47;2.08;;;;;;;-144.19;100.00;78583.56;5061479;28;20056;-89
2021/12/25 10:08:27;;;;;;;4.15;1.88;;;;;;;-144.19;100.00;78579.63;5055985;28;20046;-89
2021/12/25 10:11:01;;;;;;;6.22;2.22;;;;;;;-144.19;100.00;78567.81;5071022;28;20564;-86
2021/12/25 10:13:29;;;;;;;1.88;0.88;;;;;;;-144.19;100.00;78557.97;5074165;28;20048;-90
2021/12/25 10:16:23;;;;;;;1.35;0.50;;;;;;;-144.19;100.00;78548.13;5078636;28;20509;-89
2021/12/25 10:18:51;;;;;;;2.35;0.60;;;;;;;-144.19;100.00;78528.44;5078130;28;20052;-90
2021/12/25 10:21:29;;;;;;;1.10;0.77;;;;;;;-144.19;100.00;78524.50;5077419;28;20054;-89
2021/12/25 10:24:06;;;;;;;0.80;0.50;;;;;;;-144.19;99.49;78514.63;5077350;28;20044;-90
2021/12/25 10:26:35;;;;;;;2.67;0.80;;;;;;;-144.19;98.68;78378.75;5077457;28;20056;-89
2021/12/25 10:29:20;;;;;;;2.83;1.15;;;;;;;-144.19;91.85;78335.44;5076684;28;20044;-90
2021/12/25 10:31:48;;;;;;;3.83;1.52;;;;;;;-144.19;92.16;78183.81;5076947;28;20055;-88
2021/12/25 10:34:17;;;;;;;6.93;3.97;;;;;;;-144.19;86.35;78209.41;5077263;28;20483;-90
2021/12/25 10:36:44;;;;;;;4.13;1.23;;;;;;;-144.19;85.68;78209.41;5070307;28;20052;-91
2021/12/25 10:39:20;;;;;;;6.28;1.30;;;;;;;-144.19;83.87;78181.84;5057401;28;20052;-91
2021/12/25 10:41:54;;;;;;;4.03;1.13;;;;;;;-144.19;82.82;78170.00;5059118;28;20048;-88
2021/12/25 10:44:25;;;;;;;2.45;0.80;;;;;;;-144.19;80.83;78140.47;5057508;28;20151;-87
2021/12/25 10:47:00;;;;;;;3.45;0.90;;;;;;;-144.19;81.36;78087.31;5059627;28;20044;-87
2021/12/25 10:49:29;;;;;;;2.75;0.80;;;;;;;-144.19;77.04;78103.06;5069232;28;20056;-87
2021/12/25 10:52:10;;;;;;;1.60;0.70;;;;;;;-144.19;77.98;78028.22;5057720;28;20057;-88
2021/12/25 10:54:41;;;;;;;2.80;0.95;;;;;;;-144.19;77.01;78138.50;5060241;28;20056;-86
2021/12/25 10:57:07;;;;;;;1.95;0.80;;;;;;;-144.19;78.41;78071.56;5060462;28;20064;-88
2021/12/25 10:59:48;;;;;;;2.58;0.75;;;;;;;-144.19;75.21;78107.00;5039636;28;20052;-85
2021/12/25 11:02:36;;;;;;;1.02;0.70;;;;;;;-144.19;76.76;78146.38;5064390;28;20048;-87
2021/12/25 11:05:23;;;;;;;5.00;1.02;;;;;;;-144.19;76.71;77939.63;5049436;28;20051;-87
2021/12/25 11:08:13;;;;;;;7.80;1.90;;;;;;;-144.19;70.26;77890.41;5055821;28;20052;-87
2021/12/25 11:10:45;;;;;;;3.05;0.77;;;;;;;-144.19;73.29;77858.91;5070211;28;20516;-86
2021/12/25 11:13:33;;;;;;;2.60;0.80;;;;;;;-144.19;71.79;77791.94;5076751;28;20058;-89
2021/12/25 11:16:12;;;;;;;0.82;0.60;;;;;;;-144.19;68.50;77732.88;5063435;28;20083;-88
2021/12/25 11:19:05;;;;;;;1.85;0.60;;;;;;;-144.19;66.70;77902.22;5076978;28;20040;-88
2021/12/25 11:21:56;;;;;;;1.98;1.20;;;;;;;-144.19;68.88;77728.94;5073905;28;20175;-90
2021/12/25 11:24:24;;;;;;;3.05;1.77;;;;;;;-144.19;67.18;77756.50;5048725;28;20143;-87
2021/12/25 11:26:52;;;;;;;1.63;0.90;;;;;;;-144.19;65.45;77811.63;5063051;28;20052;-86
2021/12/25 11:29:21;;;;;;;4.35;1.05;;;;;;;-144.19;66.37;77847.09;5081368;28;20454;-88
2021/12/25 11:31:50;;;;;;;3.53;0.98;;;;;;;-144.19;64.35;77854.97;5056352;28;20280;-86
2021/12/25 11:34:19;;;;;;;5.32;0.95;;;;;;;-144.19;63.72;77701.38;5075827;28;20044;-86
2021/12/25 11:36:48;;;;;;;2.17;0.60;;;;;;;-144.19;65.49;77689.56;5069412;28;20446;-86
2021/12/25 11:39:21;;;;;;;4.00;0.60;;;;;;;-144.19;62.60;77667.91;5065525;28;20059;-88
2021/12/25 11:41:49;;;;;;;2.25;0.80;;;;;;;-144.19;60.93;77671.84;5075154;28;20051;-88
2021/12/25 11:44:36;;;;;;;3.25;1.65;;;;;;;-144.19;61.98;77709.25;5083591;28;20040;-87
2021/12/25 11:47:04;;;;;;;3.60;1.30;;;;;;;-144.19;61.47;77730.91;5080268;28;20056;-86
2021/12/25 11:49:31;;;;;;;7.57;0.70;;;;;;;-144.19;60.14;77768.31;5077867;28;20516;-91
2021/12/25 11:52:19;;;;;;;4.00;1.05;;;;;;;-144.19;61.62;77841.19;5054940;28;20058;-88
2021/12/25 11:55:12;;;;;;;5.40;0.80;;;;;;;-144.19;63.09;77890.41;5057253;28;20056;-89
2021/12/25 11:58:37;;;;;;;2.53;0.82;;;;;;;-144.19;61.00;77864.81;5074776;28;20493;-90
2021/12/25 12:00:46;;;;;;;2.63;1.13;;;;;;;-144.19;61.63;77906.16;5078564;28;20047;-88
2021/12/25 12:03:38;;;;;;;1.35;0.70;;;;;;;-144.19;64.58;77998.69;5074980;28;20054;-88
2021/12/25 12:06:08;;;;;;;1.88;0.90;;;;;;;-144.19;68.91;78103.06;5069092;28;20055;-86
2021/12/25 12:09:00;;;;;;;2.88;0.60;;;;;;;-144.19;70.44;78162.13;5078471;28;20048;-88
2021/12/25 12:11:28;;;;;;;1.63;0.60;;;;;;;-144.19;72.95;78177.91;5063516;28;20050;-86
2021/12/25 12:14:13;;;;;;;2.38;0.80;;;;;;;-144.19;74.40;78227.13;5055005;28;20055;-87
2021/12/25 12:16:43;;;;;;;2.42;0.80;;;;;;;-144.19;75.80;78252.72;5064503;28;20391;-84
2021/12/25 12:19:36;;;;;;;3.20;0.70;;;;;;;-144.19;78.93;78256.66;5057570;28;20043;-87
2021/12/25 12:22:15;;;;;;;4.85;0.90;;;;;;;-144.19;78.64;78260.59;5046449;28;20045;-87
2021/12/25 12:27:41;;;;;;;3.15;0.60;;;;;;;-144.19;77.60;78268.47;5071819;28;20052;-85
2021/12/25 12:30:10;;;;;;;2.58;0.73;;;;;;;-144.19;78.35;78270.44;5056270;28;20041;-87
2021/12/25 12:32:44;;;;;;;1.70;0.60;;;;;;;-144.19;78.45;78276.34;5065692;28;20048;-86
2021/12/25 12:35:33;;;;;;;1.33;0.68;;;;;;;-144.19;77.63;78264.53;5062586;28;20426;-87
2021/12/25 12:38:40;;;;;;;4.35;0.60;;;;;;;-144.19;76.45;78274.38;5058037;28;20068;-85
2021/12/25 12:41:37;;;;;;;3.92;0.75;;;;;;;-144.19;76.39;78280.28;5072598;28;20165;-87
2021/12/25 12:44:07;;;;;;;1.25;0.88;;;;;;;-144.19;76.56;78270.44;5054103;28;20082;-87
2021/12/25 12:46:49;;;;;;;2.50;1.40;;;;;;;-144.19;74.89;78266.50;5054621;28;20060;-86
2021/12/25 12:49:19;;;;;;;1.45;0.60;;;;;;;-144.19;74.79;78274.38;5073983;28;20044;-86
2021/12/25 12:51:48;;;;;;;1.90;0.95;;;;;;;-144.19;74.60;78276.34;5062707;28;20053;-85
2021/12/25 12:54:51;;;;;;;5.22;0.85;;;;;;;-144.19;73.11;78260.59;5069785;28;20040;-88
2021/12/25 12:57:21;;;;;;;1.70;0.77;;;;;;;-144.19;72.84;78280.28;5027367;28;20063;-86
2021/12/25 12:59:53;;;;;;;2.38;0.90;;;;;;;-144.19;73.51;78272.41;5089507;28;20071;-88
2021/12/25 13:02:22;;;;;;;2.53;0.88;;;;;;;-144.19;74.59;78264.53;5066822;28;20048;-89
2021/12/25 13:04:59;;;;;;;1.38;0.70;;;;;;;-144.19;77.22;78264.53;5065032;28;20130;-87
2021/12/25 13:07:30;;;;;;;1.35;0.95;;;;;;;-144.19;77.84;78252.72;5059352;28;20044;-89
2021/12/25 13:10:15;;;;;;;1.42;0.80;;;;;;;-144.19;75.16;78268.47;5072835;28;20050;-88
2021/12/25 13:12:46;;;;;;;2.25;1.83;;;;;;;-144.19;76.09;78225.16;5061565;28;20201;-86
2021/12/25 13:15:25;;;;;;;4.05;2.60;;;;;;;-144.19;74.76;78171.97;5070735;28;20056;-89
2021/12/25 13:17:58;;;;;;;3.45;1.40;;;;;;;-144.19;71.68;78170.00;5070166;28;20049;-89
2021/12/25 13:20:48;;;;;;;2.90;1.10;;;;;;;-144.19;71.46;78193.66;5049400;28;20045;-85
2021/12/25 13:23:19;;;;;;;1.02;0.77;;;;;;;-144.19;69.36;78166.06;5075965;28;20051;-87
2021/12/25 13:25:56;;;;;;;4.53;1.15;;;;;;;-144.19;69.94;78170.00;5080740;28;20049;-87
2021/12/25 13:28:25;;;;;;;6.10;1.10;;;;;;;-144.19;70.18;78138.50;5072204;28;20048;-87
2021/12/25 13:30:56;;;;;;;2.28;0.80;;;;;;;-144.19;69.31;78130.63;5073018;28;20051;-88
2021/12/25 13:33:24;;;;;;;3.78;0.70;;;;;;;-144.19;69.20;78177.91;5058417;28;20055;-89
2021/12/25 13:36:09;;;;;;;3.50;1.40;;;;;;;-144.19;68.32;78185.78;5066891;28;20058;-86
2021/12/25 13:38:48;;;;;;;6.25;1.20;;;;;;;-144.19;69.98;78193.66;5069778;28;20051;-87
2021/12/25 13:41:27;;;;;;;3.40;1.17;;;;;;;-144.19;70.77;78205.47;5069468;28;20044;-89
2021/12/25 13:44:18;;;;;;;0.90;0.73;;;;;;;-144.19;72.36;78217.28;5037517;28;20059;-89
2021/12/25 13:46:55;;;;;;;3.25;0.95;;;;;;;-144.19;73.77;78233.03;5096758;28;20048;-88
2021/12/25 13:49:40;;;;;;;1.48;0.90;;;;;;;-144.19;74.30;78236.97;5075020;28;20052;-88
2021/12/25 13:52:11;;;;;;;2.00;0.70;;;;;;;-144.19;75.05;78221.22;5058152;28;20135;-87
2021/12/25 13:54:41;;;;;;;2.25;0.82;;;;;;;-144.19;74.32;78229.09;5083545;28;20124;-83
2021/12/25 13:57:09;;;;;;;0.98;0.60;;;;;;;-144.19;75.75;78236.97;5078998;28;20054;-86
2021/12/25 13:59:36;;;;;;;2.88;1.08;;;;;;;-144.19;75.81;78225.16;5061335;28;20555;-88
2021/12/25 14:02:05;;;;;;;5.35;1.00;;;;;;;-144.19;77.69;78242.88;5059256;28;20145;-86
2021/12/25 14:04:33;;;;;;;4.88;1.30;;;;;;;-144.19;78.81;78213.34;5061796;28;20056;-87
2021/12/25 14:07:00;;;;;;;5.95;2.05;;;;;;;-144.19;80.22;78233.03;5061038;28;20511;-85
2021/12/25 14:09:27;;;;;;;4.53;2.55;;;;;;;-144.19;80.11;78236.97;5060461;28;20040;-88
2021/12/25 14:11:56;;;;;;;4.25;1.48;;;;;;;-144.19;80.22;78276.34;5079316;28;20251;-85
2021/12/25 14:14:24;;;;;;;3.47;1.38;;;;;;;-144.19;81.91;78315.75;5082150;28;20044;-86
2021/12/25 14:16:51;;;;;;;3.45;1.08;;;;;;;-144.19;82.75;78319.69;5081514;28;20062;-87
2021/12/25 14:19:18;;;;;;;5.85;1.35;;;;;;;-144.19;83.58;78335.44;5082983;28;20058;-87
2021/12/25 14:21:54;;;;;;;3.20;0.90;;;;;;;-144.19;84.29;78343.31;5078248;28;20059;-86
2021/12/25 14:24:21;;;;;;;2.08;0.95;;;;;;;-144.19;84.11;78351.19;5061990;28;20048;-84
2021/12/25 14:26:49;;;;;;;1.65;0.90;;;;;;;-144.19;84.82;78351.19;5063503;28;20116;-87
2021/12/25 14:29:28;;;;;;;2.05;1.00;;;;;;;-144.19;84.84;78357.09;5079159;28;20059;-88
2021/12/25 14:31:54;;;;;;;2.58;1.08;;;;;;;-144.19;84.84;78359.06;5079218;28;20295;-86
2021/12/25 14:34:29;;;;;;;2.15;1.02;;;;;;;-144.19;85.43;78370.88;5079149;28;20084;-86
2021/12/25 14:36:55;;;;;;;2.25;0.90;;;;;;;-144.19;85.24;78374.81;5082808;28;20478;-84
2021/12/25 14:39:23;;;;;;;3.13;0.93;;;;;;;-144.19;85.38;78382.69;5073874;28;20061;-86
2021/12/25 14:41:51;;;;;;;2.15;1.00;;;;;;;-144.19;85.46;78390.56;5073984;28;20068;-87
2021/12/25 14:44:19;;;;;;;4.40;1.40;;;;;;;-144.19;86.75;78402.38;5080575;28;20048;-86
2021/12/25 14:46:48;;;;;;;7.18;1.33;;;;;;;-144.19;86.98;78412.22;5080416;28;20067;-89
2021/12/25 14:49:15;;;;;;;1.80;1.00;;;;;;;-144.19;87.14;78422.09;5080610;28;20051;-86
2021/12/25 14:51:43;;;;;;;3.70;1.08;;;;;;;-144.19;87.13;78416.19;5081349;28;20056;-86
2021/12/25 14:54:10;;;;;;;4.22;1.23;;;;;;;-144.19;87.24;78426.03;5098690;28;20052;-89
2021/12/25 14:56:40;;;;;;;2.30;1.10;;;;;;;-144.19;88.07;78426.03;5063329;28;20059;-86
2021/12/25 14:59:06;;;;;;;2.70;1.13;;;;;;;-144.19;88.88;78429.97;5060084;28;20048;-88
2021/12/25 15:01:38;;;;;;;2.22;1.23;;;;;;;-144.19;88.38;78441.78;5059960;28;20052;-88
2021/12/25 15:04:20;;;;;;;3.05;1.20;;;;;;;-144.19;89.26;78445.72;5060702;28;20079;-88
2021/12/25 15:06:57;;;;;;;3.30;1.38;;;;;;;-144.19;88.67;78453.59;5060653;28;20044;-88
2021/12/25 15:09:30;;;;;;;6.00;2.90;;;;;;;-144.19;88.96;78449.66;5059526;28;20044;-87
2021/12/25 15:12:07;;;;;;;6.40;2.50;;;;;;;-144.19;89.05;78453.59;5077680;28;20096;-85
2021/12/25 15:14:40;;;;;;;3.53;1.70;;;;;;;-144.19;89.50;78455.56;5093811;28;20044;-87
2021/12/25 15:17:13;;;;;;;3.95;1.42;;;;;;;-144.19;89.64;78479.19;5061421;28;20062;-90
2021/12/25 15:19:45;;;;;;;4.65;1.60;;;;;;;-144.19;89.32;78481.16;5061779;28;20053;-86
2021/12/25 15:22:18;;;;;;;6.32;1.52;;;;;;;-144.19;90.36;78481.16;5060043;28;20071;-87
2021/12/25 15:24:57;;;;;;;2.00;1.05;;;;;;;-144.19;90.15;78481.16;5080313;28;20074;-87
2021/12/25 15:27:38;;;;;;;4.65;1.75;;;;;;;-144.19;90.06;78492.97;5061916;28;20108;-89
2021/12/25 15:30:13;;;;;;;3.45;1.30;;;;;;;-144.19;90.43;78498.88;5061597;28;20513;-87
2021/12/25 15:32:48;;;;;;;8.27;2.97;;;;;;;-144.19;90.91;78508.72;5061997;28;20494;-88
2021/12/25 15:35:18;;;;;;;9.48;4.00;;;;;;;-144.19;91.77;78512.66;5068835;28;20062;-86
2021/12/25 15:37:50;;;;;;;3.83;1.30;;;;;;;-144.19;91.58;78522.50;5080954;28;20502;-88
2021/12/25 15:40:21;;;;;;;2.33;1.25;;;;;;;-144.19;92.98;78518.56;5080693;28;20071;-88
2021/12/25 15:42:48;;;;;;;4.60;1.75;;;;;;;-144.19;93.29;78520.56;5097013;28;20134;-88
2021/12/25 15:45:15;;;;;;;4.63;1.83;;;;;;;-144.19;93.58;78528.44;5077991;28;20060;-86
2021/12/25 15:47:44;;;;;;;4.63;1.90;;;;;;;-144.19;94.06;78536.31;5051262;28;20056;-86
2021/12/25 15:50:16;;;;;;;1.92;1.20;;;;;;;-144.19;94.49;78536.31;5060409;28;20044;-84
2021/12/25 15:52:42;;;;;;;2.72;1.40;;;;;;;-144.19;94.56;78538.28;5065918;28;20079;-85
2021/12/25 15:55:09;;;;;;;3.47;1.48;;;;;;;-144.19;94.74;78540.25;5073264;28;20122;-85
2021/12/25 15:57:36;;;;;;;4.45;2.15;;;;;;;-144.19;95.17;78552.06;5065951;28;20048;-87
2021/12/25 16:00:11;;;;;;;7.30;2.53;;;;;;;-144.19;95.65;78557.97;5068472;28;20076;-88
2021/12/25 16:02:38;;;;;;;3.30;2.78;;;;;;;-144.19;95.66;78563.88;5069584;28;20399;-84
2021/12/25 16:05:06;;;;;;;6.20;1.60;;;;;;;-144.19;95.82;78571.75;5085211;28;20052;-83
2021/12/25 16:07:33;;;;;;;4.55;2.38;;;;;;;-144.19;96.47;78579.63;5089782;28;20048;-87
2021/12/25 16:09:59;;;;;;;3.78;1.58;;;;;;;-144.19;97.02;78587.50;5071721;28;20055;-89
2021/12/25 16:12:26;;;;;;;2.70;1.02;;;;;;;-144.19;97.89;78591.44;5073377;28;20574;-84
2021/12/25 16:14:52;;;;;;;2.80;1.08;;;;;;;-144.19;97.88;78599.31;5096637;28;20126;-86
2021/12/25 16:17:19;;;;;;;4.07;2.08;;;;;;;-144.19;98.08;78591.44;5076842;28;20048;-85
2021/12/25 16:19:45;;;;;;;4.40;1.75;;;;;;;-144.19;98.29;78599.31;5075318;28;20059;-86
2021/12/25 16:22:11;;;;;;;5.75;2.70;;;;;;;-144.19;98.28;78607.19;5066708;28;20063;-87
2021/12/25 16:24:38;;;;;;;7.55;2.63;;;;;;;-144.19;98.89;78611.13;5069641;28;20039;-86
2021/12/25 16:27:04;;;;;;;7.55;3.03;;;;;;;-144.19;99.12;78611.13;5089981;28;20048;-83
2021/12/25 16:29:31;;;;;;;9.90;4.25;;;;;;;-144.19;99.17;78619.03;5075872;28;20052;-88
2021/12/25 16:31:57;;;;;;;11.68;3.90;;;;;;;-144.19;99.21;78624.94;5071237;28;20040;-83
2021/12/25 16:34:24;;;;;;;10.23;4.13;;;;;;;-144.19;99.23;78626.91;5084050;28;20055;-84
2021/12/25 16:36:51;;;;;;;6.80;2.65;;;;;;;-144.19;99.95;78636.75;5085128;28;20058;-85
2021/12/25 16:39:20;;;;;;;7.03;2.65;;;;;;;-144.19;100.00;78638.72;5065736;28;20122;-86
2021/12/25 16:41:49;;;;;;;6.47;2.25;;;;;;;-144.19;100.00;78650.53;5048577;28;20036;-85
2021/12/25 16:44:17;;;;;;;3.17;1.60;;;;;;;-144.19;100.00;78656.44;5079287;28;20052;-86
2021/12/25 16:46:45;;;;;;;2.88;1.98;;;;;;;-144.19;100.00;78654.47;5069781;28;20056;-86
2021/12/25 16:49:12;;;;;;;2.15;1.40;;;;;;;-144.19;100.00;78662.34;5083647;28;20052;-84
2021/12/25 16:51:40;;;;;;;3.63;1.42;;;;;;;-144.19;100.00;78670.22;5067775;28;20051;-85
2021/12/25 16:54:08;;;;;;;;;;;;;;;-144.19;100.00;78666.28;5067726;28;20044;-85
2021/12/25 16:56:34;;;;;;;7.00;2.63;;;;;;;-144.19;100.00;78678.09;5065774;28;19982;-86
2021/12/25 16:59:19;;;;;;;3.17;2.15;;;;;;;-144.19;100.00;78678.09;5070346;28;20047;-85
2021/12/25 17:01:46;;;;;;;5.18;2.85;;;;;;;-144.19;100.00;78684.00;5082966;28;20044;-85
2021/12/25 17:04:14;;;;;;;7.22;2.65;;;;;;;-144.19;100.00;78693.84;5066106;28;20502;-88
2021/12/25 17:06:40;;;;;;;9.25;4.82;;;;;;;-144.19;100.00;78697.78;5066290;28;20045;-85
2021/12/25 17:09:07;;;;;;;8.57;4.15;;;;;;;-144.19;100.00;78695.81;5085492;28;20049;-85
2021/12/25 17:11:34;;;;;;;6.40;4.00;;;;;;;-144.19;100.00;78701.72;5065740;28;20044;-86
2021/12/25 17:14:01;;;;;;;6.07;3.75;;;;;;;-144.19;100.00;78705.66;5066574;28;20052;-85
2021/12/25 17:16:30;;;;;;;8.05;4.13;;;;;;;-144.19;100.00;78713.56;5081564;28;20553;-87
2021/12/25 17:19:02;;;;;;;6.35;3.47;;;;;;;-144.19;100.00;78721.44;5066115;28;20058;-86
2021/12/25 17:21:29;;;;;;;6.25;3.13;;;;;;;-144.19;100.00;78723.41;5083089;28;20048;-84
2021/12/25 17:23:55;;;;;;;5.70;3.63;;;;;;;-144.19;100.00;78721.44;5064056;28;20044;-86
2021/12/25 17:26:22;;;;;;;6.78;4.30;;;;;;;-144.19;100.00;78725.38;5069652;28;20045;-85
2021/12/25 17:28:49;;;;;;;8.60;5.63;;;;;;;-144.19;100.00;78731.28;5062233;28;20454;-85
2021/12/25 17:31:17;;;;;;;5.70;3.05;;;;;;;-144.19;100.00;78739.16;5070926;28;20043;-85
2021/12/25 17:33:47;;;;;;;3.35;2.13;;;;;;;-144.19;100.00;78752.94;5060602;28;20094;-84
2021/12/25 17:36:14;;;;;;;5.10;2.10;;;;;;;-144.19;100.00;78750.97;5069574;28;20520;-84
2021/12/25 17:38:42;;;;;;;3.45;1.55;;;;;;;-144.19;100.00;78756.88;5060776;28;20045;-85
2021/12/25 17:41:13;;;;;;;5.47;1.60;;;;;;;-144.19;100.00;78768.69;5083961;28;20621;-88
2021/12/25 17:43:40;;;;;;;6.03;2.00;;;;;;;-144.19;100.00;78764.75;5075303;28;20510;-85
2021/12/25 17:46:08;;;;;;;5.63;2.97;;;;;;;-144.19;100.00;78764.75;5089680;28;20043;-86
2021/12/25 17:48:34;;;;;;;5.15;2.70;;;;;;;-144.19;100.00;78764.75;5084907;28;20060;-86
2021/12/25 17:51:02;;;;;;;6.20;2.67;;;;;;;-144.19;100.00;78770.66;5069437;28;20037;-87
2021/12/25 17:53:28;;;;;;;6.38;2.67;;;;;;;-144.19;100.00;78766.72;5071206;28;20044;-85
2021/12/25 17:55:55;;;;;;;3.42;2.20;;;;;;;-144.19;100.00;78764.75;5070903;28;20056;-86
2021/12/25 17:58:22;;;;;;;3.92;1.92;;;;;;;-144.19;100.00;78772.63;5068927;28;20514;-86
2021/12/25 18:00:50;;;;;;;3.28;1.95;;;;;;;-144.19;100.00;78768.69;5065507;28;20045;-85
2021/12/25 18:03:18;;;;;;;5.60;2.30;;;;;;;-144.19;100.00;78770.66;5063645;28;20048;-89
2021/12/25 18:05:47;;;;;;;4.43;1.77;;;;;;;-144.19;100.00;78768.69;5058848;28;20136;-86
2021/12/25 18:08:14;;;;;;;8.95;2.17;;;;;;;-144.19;100.00;78780.50;5061183;28;20052;-85
2021/12/25 18:10:40;;;;;;;5.85;2.10;;;;;;;-144.19;100.00;78778.53;5075544;28;20049;-87
2021/12/25 18:13:07;;;;;;;4.03;1.90;;;;;;;-144.19;100.00;78776.56;5069886;28;20059;-87
2021/12/25 18:15:34;;;;;;;4.15;1.80;;;;;;;-144.19;100.00;78784.44;5079981;28;20108;-87
2021/12/25 18:18:03;;;;;;;4.35;1.88;;;;;;;-144.19;100.00;78778.53;5061331;28;20047;-86
2021/12/25 18:20:35;;;;;;;3.95;1.90;;;;;;;-144.19;100.00;78780.50;5071359;28;20048;-87
2021/12/25 18:23:02;;;;;;;4.95;2.20;;;;;;;-144.19;100.00;78776.56;5058528;28;20048;-86
2021/12/25 18:25:28;;;;;;;;;;;;;;;-144.19;100.00;78788.38;5077322;28;20053;-86
2021/12/25 18:27:54;;;;;;;4.35;2.05;;;;;;;-144.19;100.00;78784.44;5075216;28;19928;-85
2021/12/25 18:30:22;;;;;;;6.00;3.00;;;;;;;-144.19;100.00;78794.31;5058018;28;20075;-87
2021/12/25 18:32:51;;;;;;;3.25;2.15;;;;;;;-144.19;100.00;78792.34;5056574;28;20044;-85
2021/12/25 18:35:18;;;;;;;5.30;2.50;;;;;;;-144.19;100.00;78800.22;5057829;28;20048;-84
2021/12/25 18:37:45;;;;;;;5.57;2.38;;;;;;;-144.19;100.00;78808.09;5075922;28;20059;-84
2021/12/25 18:40:15;;;;;;;8.48;3.05;;;;;;;-144.19;100.00;78804.16;5057888;28;20051;-85
2021/12/25 18:42:42;;;;;;;15.50;5.38;;;;;;;-144.19;100.00;78806.13;5081766;28;20047;-86
2021/12/25 18:45:09;;;;;;;6.80;2.45;;;;;;;-144.19;100.00;78812.03;5095759;28;20056;-86
2021/12/25 18:47:36;;;;;;;9.05;2.83;;;;;;;-144.19;100.00;78819.91;5077554;28;20052;-87
2021/12/25 18:50:05;;;;;;;5.40;2.78;;;;;;;-144.19;100.00;78823.84;5077212;28;20521;-86
2021/12/25 18:52:31;;;;;;;3.15;2.05;;;;;;;-144.19;100.00;78825.81;5094466;28;20374;-85
2021/12/25 18:54:58;;;;;;;5.32;3.08;;;;;;;-144.19;100.00;78823.84;5062711;28;20048;-85
2021/12/25 18:57:24;;;;;;;2.70;2.00;;;;;;;-144.19;100.00;78827.78;5054919;28;20063;-87
2021/12/25 18:59:50;;;;;;;5.07;1.98;;;;;;;-144.19;100.00;78835.66;5055176;28;20056;-85
2021/12/25 19:02:17;;;;;;;6.85;2.05;;;;;;;-144.19;100.00;78841.56;5072521;28;20045;-86
2021/12/25 19:04:44;;;;;;;4.05;2.17;;;;;;;-144.19;100.00;78843.53;5055110;28;20054;-85
2021/12/25 19:07:10;;;;;;;4.68;2.05;;;;;;;-144.19;100.00;78845.50;5057557;28;20053;-86
2021/12/25 19:09:37;;;;;;;6.47;2.47;;;;;;;-144.19;100.00;78843.53;5054771;28;20057;-87
2021/12/25 19:12:04;;;;;;;6.50;2.40;;;;;;;-144.19;100.00;78843.53;5071959;28;20049;-85
2021/12/25 19:14:30;;;;;;;5.35;2.38;;;;;;;-144.19;100.00;78837.63;5054851;28;20047;-85
2021/12/25 19:16:57;;;;;;;4.63;2.58;;;;;;;-144.19;100.00;78839.59;5056426;28;20412;-86
2021/12/25 19:19:24;;;;;;;5.00;2.42;;;;;;;-144.19;100.00;78831.72;5055242;28;20056;-86
2021/12/25 19:21:51;;;;;;;9.25;2.83;;;;;;;-144.19;100.00;78843.53;5054810;28;20048;-86
2021/12/25 19:24:19;;;;;;;2.40;1.95;;;;;;;-144.19;100.00;78843.53;5072088;28;20053;-86
2021/12/25 19:26:47;;;;;;;4.07;2.78;;;;;;;-144.19;100.00;78847.47;5055004;28;20049;-86
2021/12/25 19:29:14;;;;;;;6.13;2.25;;;;;;;-144.19;100.00;78841.56;5072666;28;20050;-86
2021/12/25 19:31:41;;;;;;;6.20;2.47;;;;;;;-144.19;100.00;78847.47;5054946;28;20052;-85
2021/12/25 19:34:09;;;;;;;6.00;2.63;;;;;;;-144.19;100.00;78845.50;5054673;28;20056;-85
2021/12/25 19:36:36;;;;;;;6.40;2.80;;;;;;;-144.19;100.00;78855.34;5090632;28;20074;-83
2021/12/25 19:39:05;;;;;;;4.15;2.55;;;;;;;-144.19;100.00;78853.38;5074666;28;20082;-86
2021/12/25 19:41:32;;;;;;;4.47;2.40;;;;;;;-144.19;100.00;78851.41;5092930;28;20055;-86
2021/12/25 19:43:59;;;;;;;2.53;2.33;;;;;;;-144.19;100.00;78847.47;5073967;28;20052;-86
2021/12/25 19:46:28;;;;;;;7.53;2.55;;;;;;;-144.19;100.00;78851.41;5075619;28;20044;-85
2021/12/25 19:48:58;;;;;;;4.65;2.33;;;;;;;-144.19;100.00;78851.41;5054591;28;20198;-85
2021/12/25 19:51:29;;;;;;;4.65;2.20;;;;;;;-144.19;100.00;78853.38;5054117;28;20052;-85
2021/12/25 19:53:58;;;;;;;3.80;1.90;;;;;;;-144.19;100.00;78853.38;5083374;28;20048;-86
2021/12/25 19:56:26;;;;;;;5.68;2.22;;;;;;;-144.19;100.00;78847.47;5056582;28;20195;-86
2021/12/25 19:58:53;;;;;;;3.75;2.15;;;;;;;-144.19;100.00;78851.41;5075060;28;20045;-85
2021/12/25 20:01:22;;;;;;;5.03;2.35;;;;;;;-144.19;100.00;78851.41;5054380;28;20056;-85
2021/12/25 20:03:51;;;;;;;4.95;2.25;;;;;;;-144.19;100.00;78843.53;5053306;28;20086;-85
2021/12/25 20:06:19;;;;;;;3.47;2.30;;;;;;;-144.19;100.00;78847.47;5054219;28;20060;-85
2021/12/25 20:08:50;;;;;;;9.35;2.50;;;;;;;-144.19;100.00;78851.41;5061158;28;20059;-84
2021/12/25 20:11:18;;;;;;;4.68;2.55;;;;;;;-144.19;100.00;78861.25;5060538;28;20051;-87
2021/12/25 20:13:46;;;;;;;7.03;3.08;;;;;;;-144.19;100.00;78863.22;5065583;28;20079;-86
2021/12/25 20:16:16;;;;;;;6.20;2.00;;;;;;;-144.19;100.00;78863.22;5067464;28;20040;-86
2021/12/25 20:18:46;;;;;;;4.30;2.72;;;;;;;-144.19;100.00;78871.13;5066710;28;20086;-85
2021/12/25 20:21:13;;;;;;;6.90;2.33;;;;;;;-144.19;100.00;78869.13;5072007;28;20049;-85
2021/12/25 20:23:40;;;;;;;3.97;2.33;;;;;;;-144.19;100.00;78875.06;5045027;28;20058;-86
2021/12/25 20:26:07;;;;;;;;;;;;;;;-144.19;100.00;78879.00;5069601;28;20044;-85
2021/12/25 20:28:38;;;;;;;4.10;2.88;;;;;;;-144.19;100.00;78882.94;5065564;28;19920;-85
2021/12/25 20:31:06;;;;;;;6.68;2.75;;;;;;;-144.19;100.00;78880.97;5082236;28;20048;-84
2021/12/25 20:33:33;;;;;;;5.93;2.78;;;;;;;-144.19;100.00;78892.78;5063235;28;20413;-84
2021/12/25 20:36:01;;;;;;;5.32;2.35;;;;;;;-144.19;100.00;78884.91;5053957;28;20044;-86
2021/12/25 20:38:27;;;;;;;4.25;2.40;;;;;;;-144.19;100.00;78898.69;5082087;28;20056;-85
2021/12/25 20:40:55;;;;;;;7.47;2.60;;;;;;;-144.19;100.00;78894.75;5078829;28;20166;-87
2021/12/25 20:43:30;;;;;;;5.95;2.25;;;;;;;-144.19;100.00;78902.63;5061512;28;20041;-86
2021/12/25 20:45:57;;;;;;;4.60;2.75;;;;;;;-144.19;100.00;78906.56;5064144;28;20056;-85
2021/12/25 20:48:27;;;;;;;3.35;2.25;;;;;;;-144.19;100.00;78904.59;5063757;28;20047;-86
2021/12/25 20:50:57;;;;;;;6.93;2.45;;;;;;;-144.19;100.00;78908.53;5067732;28;20054;-86
2021/12/25 20:53:47;;;;;;;7.47;2.53;;;;;;;-144.19;100.00;78912.47;5070308;28;20082;-83
2021/12/25 20:56:18;;;;;;;5.55;2.20;;;;;;;-144.19;100.00;78922.31;5066777;28;20050;-86
2021/12/25 20:58:44;;;;;;;5.20;2.25;;;;;;;-144.19;100.00;78916.41;5065060;28;20059;-86
2021/12/25 21:01:12;;;;;;;5.93;2.58;;;;;;;-144.19;100.00;78922.31;5083719;28;20078;-83
2021/12/25 21:03:40;;;;;;;4.22;2.03;;;;;;;-144.19;100.00;78930.19;5064448;28;20051;-85
2021/12/25 21:06:07;;;;;;;;;;;;;;;-144.19;100.00;78938.06;5082384;28;20056;-85
2021/12/25 21:08:34;;;;;;;4.03;2.42;;;;;;;-144.19;100.00;78930.19;5061067;28;19931;-84
2021/12/25 21:11:02;;;;;;;7.60;3.00;;;;;;;-144.19;100.00;78934.13;5057939;28;20052;-83
2021/12/25 21:13:29;;;;;;;7.38;3.00;;;;;;;-144.19;100.00;78938.06;5075046;28;20037;-86
2021/12/25 21:15:56;;;;;;;;;;;;;;;-144.19;100.00;78938.06;5073235;28;20052;-86
2021/12/25 21:18:22;;;;;;;6.90;2.50;;;;;;;-144.19;100.00;78942.00;5079239;28;19926;-86
2021/12/25 21:20:49;;;;;;;10.48;2.97;;;;;;;-144.19;100.00;78940.03;5073115;28;20156;-88
2021/12/25 21:23:20;;;;;;;8.10;2.88;;;;;;;-144.19;100.00;78951.88;5075796;28;20624;-87
2021/12/25 21:25:48;;;;;;;6.25;2.30;;;;;;;-144.19;100.00;78942.00;5093230;28;20048;-87
2021/12/25 21:28:15;;;;;;;6.20;3.00;;;;;;;-144.19;100.00;78949.91;5077867;28;20055;-85